createdAt,value
2023-01-03T00:00:34.308Z,96.20
2023-01-03T00:01:34.394Z,96.30
2023-01-03T00:02:35.096Z,95.89
2023-01-03T00:03:35.553Z,95.31
2023-01-03T00:04:35.622Z,95.27
2023-01-03T00:05:36.067Z,95.48
2023-01-03T00:06:36.046Z,95.68
2023-01-03T00:07:35.414Z,95.78
2023-01-03T00:08:35.563Z,95.89
2023-01-03T00:09:35.708Z,95.68
2023-01-03T00:10:35.846Z,95.48
2023-01-03T00:11:37.019Z,95.73
2023-01-03T00:12:37.066Z,95.83
2023-01-03T00:13:36.301Z,95.62
2023-01-03T00:14:36.992Z,95.73
2023-01-03T00:15:37.524Z,95.62
2023-01-03T00:16:36.830Z,95.48
2023-01-03T00:17:36.933Z,95.42
2023-01-03T00:18:37.105Z,95.31
2023-01-03T00:19:37.284Z,95.42
2023-01-03T00:20:38.523Z,94.70
2023-01-03T00:21:37.675Z,95.00
2023-01-03T00:22:38.065Z,94.49
2023-01-03T00:23:39.522Z,95.00
2023-01-03T00:24:38.154Z,95.21
2023-01-03T00:25:38.325Z,94.90
2023-01-03T00:26:39.021Z,95.00
2023-01-03T00:27:39.519Z,95.00
2023-01-03T00:28:38.888Z,94.85
2023-01-03T00:29:39.040Z,94.90
2023-01-03T00:30:39.208Z,95.27
2023-01-03T00:31:40.031Z,94.59
2023-01-03T00:32:41.112Z,95.21
2023-01-03T00:33:40.545Z,94.49
2023-01-03T00:34:39.955Z,94.59
2023-01-03T00:35:40.118Z,94.49
2023-01-03T00:36:40.286Z,95.10
2023-01-03T00:37:40.457Z,94.59
2023-01-03T00:38:40.639Z,94.80
2023-01-03T00:39:40.832Z,94.70
2023-01-03T00:40:41.007Z,94.49
2023-01-03T00:41:41.163Z,94.70
2023-01-03T00:42:41.312Z,94.59
2023-01-03T00:43:42.065Z,94.84
2023-01-03T00:44:42.965Z,95.05
2023-01-03T00:45:43.585Z,95.25
2023-01-03T00:46:43.065Z,94.74
2023-01-03T00:47:43.073Z,95.15
2023-01-03T00:48:42.587Z,95.36
2023-01-03T00:49:43.566Z,95.15
2023-01-03T00:50:43.535Z,94.64
2023-01-03T00:51:43.061Z,94.74
2023-01-03T00:52:44.073Z,94.57
2023-01-03T00:53:44.067Z,94.57
2023-01-03T00:54:43.604Z,94.89
2023-01-03T00:55:43.807Z,94.68
2023-01-03T00:56:43.969Z,95.20
2023-01-03T00:57:45.077Z,95.40
2023-01-03T00:58:44.332Z,94.93
2023-01-03T00:59:44.506Z,95.09
2023-01-03T01:00:45.574Z,94.99
2023-01-03T01:01:47.418Z,95.71
2023-01-03T01:02:47.255Z,95.61
2023-01-03T01:03:45.236Z,95.50
2023-01-03T01:04:45.413Z,95.71
2023-01-03T01:05:45.556Z,95.61
2023-01-03T01:06:46.573Z,95.92
2023-01-03T01:07:46.531Z,95.71
2023-01-03T01:08:46.164Z,95.46
2023-01-03T01:09:47.033Z,95.50
2023-01-03T01:10:47.081Z,94.99
2023-01-03T01:11:46.694Z,95.20
2023-01-03T01:12:46.876Z,94.84
2023-01-03T01:13:47.050Z,94.89
2023-01-03T01:14:47.236Z,94.95
2023-01-03T01:15:48.073Z,95.36
2023-01-03T01:16:47.615Z,94.95
2023-01-03T01:17:47.791Z,94.84
2023-01-03T01:18:47.935Z,95.05
2023-01-03T01:19:49.077Z,94.89
2023-01-03T01:20:49.073Z,95.09
2023-01-03T01:21:48.497Z,95.05
2023-01-03T01:22:48.647Z,94.78
2023-01-03T01:23:48.800Z,95.30
2023-01-03T01:24:48.975Z,95.20
2023-01-03T01:25:49.132Z,95.09
2023-01-03T01:26:49.618Z,95.09
2023-01-03T01:27:50.902Z,95.09
2023-01-03T01:28:49.652Z,95.15
2023-01-03T01:29:49.834Z,94.89
2023-01-03T01:30:50.035Z,95.09
2023-01-03T01:31:50.212Z,95.30
2023-01-03T01:32:53.035Z,95.50
2023-01-03T01:33:51.075Z,95.14
2023-01-03T01:34:50.765Z,95.34
2023-01-03T01:35:51.551Z,95.14
2023-01-03T01:36:51.078Z,95.03
2023-01-03T01:37:51.222Z,95.14
2023-01-03T01:38:51.594Z,95.45
2023-01-03T01:39:51.491Z,95.45
2023-01-03T01:40:51.636Z,95.14
2023-01-03T01:41:52.539Z,95.45
2023-01-03T01:42:51.957Z,94.62
2023-01-03T01:43:52.151Z,94.62
2023-01-03T01:44:52.422Z,94.72
2023-01-03T01:45:52.523Z,95.03
2023-01-03T01:46:54.586Z,94.42
2023-01-03T01:47:52.840Z,94.72
2023-01-03T01:48:53.539Z,94.62
2023-01-03T01:49:53.184Z,94.52
2023-01-03T01:50:54.082Z,94.21
2023-01-03T01:51:54.585Z,94.31
2023-01-03T01:52:53.861Z,94.82
2023-01-03T01:53:54.021Z,94.72
2023-01-03T01:54:54.204Z,94.42
2023-01-03T01:55:54.358Z,95.03
2023-01-03T01:56:55.081Z,95.03
2023-01-03T01:57:55.103Z,94.93
2023-01-03T01:58:56.550Z,94.93
2023-01-03T01:59:55.034Z,94.77
2023-01-03T02:00:55.207Z,94.62
2023-01-03T02:01:55.425Z,95.59
2023-01-03T02:02:55.650Z,95.24
2023-01-03T02:03:55.661Z,95.18
2023-01-03T02:04:56.603Z,95.59
2023-01-03T02:05:56.001Z,95.14
2023-01-03T02:06:57.559Z,94.97
2023-01-03T02:07:56.314Z,94.52
2023-01-03T02:08:58.060Z,94.77
2023-01-03T02:09:56.682Z,94.35
2023-01-03T02:10:57.583Z,94.46
2023-01-03T02:11:56.981Z,94.46
2023-01-03T02:12:57.173Z,94.35
2023-01-03T02:13:57.354Z,94.15
2023-01-03T02:14:58.085Z,94.25
2023-01-03T02:15:57.805Z,94.15
2023-01-03T02:16:58.617Z,93.84
2023-01-03T02:17:58.011Z,93.73
2023-01-03T02:18:58.647Z,93.73
2023-01-03T02:19:58.303Z,93.53
2023-01-03T02:20:59.190Z,93.53
2023-01-03T02:21:58.728Z,93.73
2023-01-03T02:22:58.916Z,93.01
2023-01-03T02:23:59.088Z,93.12
2023-01-03T02:25:00.101Z,93.43
2023-01-03T02:25:59.475Z,93.37
2023-01-03T02:26:59.675Z,93.32
2023-01-03T02:28:00.554Z,93.22
2023-01-03T02:29:01.551Z,92.80
2023-01-03T02:30:00.332Z,92.50
2023-01-03T02:31:00.565Z,92.29
2023-01-03T02:32:00.777Z,92.91
2023-01-03T02:33:00.997Z,92.91
2023-01-03T02:34:01.181Z,92.60
2023-01-03T02:35:02.098Z,92.40
2023-01-03T02:36:03.147Z,92.40
2023-01-03T02:37:02.111Z,92.29
2023-01-03T02:38:01.794Z,92.19
2023-01-03T02:39:03.053Z,92.08
2023-01-03T02:40:03.106Z,92.19
2023-01-03T02:41:02.418Z,92.19
2023-01-03T02:42:02.607Z,92.19
2023-01-03T02:43:04.059Z,91.36
2023-01-03T02:44:03.006Z,91.56
2023-01-03T02:45:04.102Z,91.67
2023-01-03T02:46:03.463Z,91.88
2023-01-03T02:47:03.659Z,91.77
2023-01-03T02:48:05.553Z,91.67
2023-01-03T02:49:05.058Z,91.73
2023-01-03T02:50:04.109Z,91.56
2023-01-03T02:51:05.057Z,91.56
2023-01-03T02:52:04.437Z,91.16
2023-01-03T02:53:04.592Z,91.77
2023-01-03T02:54:05.568Z,91.56
2023-01-03T02:55:05.116Z,91.32
2023-01-03T02:56:06.050Z,91.88
2023-01-03T02:57:05.291Z,92.08
2023-01-03T02:58:05.446Z,91.98
2023-01-03T02:59:05.646Z,92.76
2023-01-03T03:00:05.825Z,92.55
2023-01-03T03:01:06.038Z,91.94
2023-01-03T03:02:07.213Z,92.46
2023-01-03T03:03:07.098Z,92.35
2023-01-03T03:04:06.570Z,92.66
2023-01-03T03:05:06.745Z,92.66
2023-01-03T03:06:07.556Z,92.66
2023-01-03T03:07:07.104Z,92.14
2023-01-03T03:08:07.276Z,92.66
2023-01-03T03:09:07.418Z,92.46
2023-01-03T03:10:07.557Z,92.66
2023-01-03T03:11:07.735Z,92.46
2023-01-03T03:12:08.560Z,92.50
2023-01-03T03:13:08.032Z,92.04
2023-01-03T03:14:09.102Z,92.46
2023-01-03T03:15:08.355Z,92.40
2023-01-03T03:16:08.577Z,92.40
2023-01-03T03:17:08.803Z,92.50
2023-01-03T03:18:08.946Z,92.29
2023-01-03T03:19:10.060Z,92.70
2023-01-03T03:20:09.946Z,92.66
2023-01-03T03:21:09.477Z,92.60
2023-01-03T03:22:09.648Z,92.70
2023-01-03T03:23:10.557Z,92.80
2023-01-03T03:24:10.931Z,92.54
2023-01-03T03:25:10.929Z,92.95
2023-01-03T03:26:10.343Z,92.95
2023-01-03T03:27:10.511Z,92.85
2023-01-03T03:28:11.561Z,92.85
2023-01-03T03:29:10.792Z,92.91
2023-01-03T03:30:10.948Z,92.85
2023-01-03T03:31:11.150Z,92.80
2023-01-03T03:32:11.314Z,92.74
2023-01-03T03:33:12.105Z,92.74
2023-01-03T03:34:11.641Z,92.95
2023-01-03T03:35:11.786Z,93.12
2023-01-03T03:36:11.927Z,93.78
2023-01-03T03:37:12.608Z,93.43
2023-01-03T03:38:12.226Z,93.47
2023-01-03T03:39:12.410Z,93.78
2023-01-03T03:40:12.588Z,93.78
2023-01-03T03:41:12.767Z,93.68
2023-01-03T03:42:12.943Z,94.46
2023-01-03T03:43:15.079Z,93.37
2023-01-03T03:44:13.338Z,93.98
2023-01-03T03:45:13.555Z,94.09
2023-01-03T03:46:13.807Z,93.88
2023-01-03T03:47:13.975Z,94.40
2023-01-03T03:48:14.055Z,93.88
2023-01-03T03:49:14.328Z,93.93
2023-01-03T03:50:15.407Z,94.34
2023-01-03T03:51:15.433Z,94.23
2023-01-03T03:52:15.611Z,94.60
2023-01-03T03:53:14.893Z,94.44
2023-01-03T03:54:15.071Z,94.85
2023-01-03T03:55:15.230Z,94.75
2023-01-03T03:56:16.075Z,94.85
2023-01-03T03:57:15.588Z,94.96
2023-01-03T03:58:15.736Z,94.65
2023-01-03T03:59:16.568Z,94.85
2023-01-03T04:00:16.120Z,94.65
2023-01-03T04:01:17.159Z,95.00
2023-01-03T04:02:16.626Z,94.79
2023-01-03T04:03:17.844Z,94.90
2023-01-03T04:04:18.611Z,95.00
2023-01-03T04:05:17.118Z,94.79
2023-01-03T04:06:18.575Z,94.79
2023-01-03T04:07:17.636Z,95.21
2023-01-03T04:08:19.575Z,95.36
2023-01-03T04:09:17.870Z,95.15
2023-01-03T04:10:18.579Z,95.36
2023-01-03T04:11:21.078Z,95.46
2023-01-03T04:12:18.452Z,95.77
2023-01-03T04:13:18.636Z,96.29
2023-01-03T04:14:18.827Z,96.08
2023-01-03T04:15:19.940Z,95.98
2023-01-03T04:16:19.262Z,95.98
2023-01-03T04:17:19.344Z,96.08
2023-01-03T04:18:19.532Z,96.08
2023-01-03T04:19:20.587Z,95.98
2023-01-03T04:20:19.876Z,96.29
2023-01-03T04:21:21.241Z,96.24
2023-01-03T04:22:21.211Z,96.08
2023-01-03T04:23:21.396Z,95.98
2023-01-03T04:24:21.216Z,96.08
2023-01-03T04:25:22.574Z,96.19
2023-01-03T04:26:20.951Z,96.08
2023-01-03T04:27:23.080Z,96.02
2023-01-03T04:28:22.082Z,96.12
2023-01-03T04:29:23.100Z,96.44
2023-01-03T04:30:21.628Z,96.08
2023-01-03T04:31:22.655Z,96.12
2023-01-03T04:32:21.994Z,96.02
2023-01-03T04:33:23.091Z,96.02
2023-01-03T04:34:22.369Z,95.92
2023-01-03T04:35:23.085Z,96.23
2023-01-03T04:36:23.586Z,96.23
2023-01-03T04:37:23.656Z,96.39
2023-01-03T04:38:24.120Z,95.98
2023-01-03T04:39:23.373Z,96.02
2023-01-03T04:40:23.530Z,96.19
2023-01-03T04:41:23.705Z,96.85
2023-01-03T04:42:23.898Z,96.23
2023-01-03T04:43:24.079Z,96.23
2023-01-03T04:44:24.244Z,96.44
2023-01-03T04:45:24.522Z,95.96
2023-01-03T04:46:25.651Z,96.37
2023-01-03T04:47:24.868Z,96.89
2023-01-03T04:48:25.624Z,96.69
2023-01-03T04:49:26.578Z,96.54
2023-01-03T04:50:26.082Z,96.64
2023-01-03T04:51:25.510Z,97.06
2023-01-03T04:52:26.618Z,96.64
2023-01-03T04:53:25.888Z,96.75
2023-01-03T04:54:27.084Z,96.85
2023-01-03T04:55:27.120Z,96.85
2023-01-03T04:56:27.092Z,96.64
2023-01-03T04:57:26.519Z,96.48
2023-01-03T04:58:26.698Z,96.89
2023-01-03T04:59:26.855Z,96.95
2023-01-03T05:00:27.970Z,96.89
2023-01-03T05:01:27.386Z,96.75
2023-01-03T05:02:27.528Z,96.48
2023-01-03T05:03:28.162Z,96.37
2023-01-03T05:04:28.892Z,96.79
2023-01-03T05:05:28.040Z,96.58
2023-01-03T05:06:28.631Z,96.94
2023-01-03T05:07:28.423Z,97.41
2023-01-03T05:08:28.566Z,97.56
2023-01-03T05:09:28.714Z,97.52
2023-01-03T05:10:29.622Z,97.31
2023-01-03T05:11:29.041Z,97.35
2023-01-03T05:12:29.209Z,97.93
2023-01-03T05:13:29.394Z,98.13
2023-01-03T05:14:29.555Z,98.03
2023-01-03T05:15:29.694Z,97.72
2023-01-03T05:16:29.969Z,97.72
2023-01-03T05:17:30.622Z,98.03
2023-01-03T05:18:30.299Z,97.62
2023-01-03T05:19:31.127Z,97.52
2023-01-03T05:20:30.644Z,97.72
2023-01-03T05:21:30.857Z,97.97
2023-01-03T05:22:31.045Z,97.52
2023-01-03T05:23:31.212Z,98.28
2023-01-03T05:24:31.385Z,97.87
2023-01-03T05:25:31.569Z,98.18
2023-01-03T05:26:32.635Z,98.13
2023-01-03T05:27:31.900Z,97.52
2023-01-03T05:28:32.625Z,97.52
2023-01-03T05:29:33.599Z,97.56
2023-01-03T05:30:33.100Z,97.83
2023-01-03T05:31:32.686Z,97.45
2023-01-03T05:32:33.590Z,97.72
2023-01-03T05:33:32.999Z,96.89
2023-01-03T05:34:33.203Z,97.25
2023-01-03T05:35:33.401Z,97.56
2023-01-03T05:36:34.141Z,97.77
2023-01-03T05:37:34.629Z,97.77
2023-01-03T05:38:34.037Z,97.97
2023-01-03T05:39:34.259Z,97.35
2023-01-03T05:40:40.888Z,96.94
2023-01-03T05:41:36.672Z,97.19
2023-01-03T05:42:34.765Z,96.78
2023-01-03T05:43:34.920Z,96.78
2023-01-03T05:44:35.082Z,96.78
2023-01-03T05:45:36.166Z,97.34
2023-01-03T05:46:36.188Z,97.44
2023-01-03T05:47:35.639Z,97.34
2023-01-03T05:48:35.775Z,98.21
2023-01-03T05:49:35.889Z,98.63
2023-01-03T05:50:36.026Z,98.32
2023-01-03T05:51:36.162Z,98.69
2023-01-03T05:52:36.347Z,98.94
2023-01-03T05:53:37.150Z,98.83
2023-01-03T05:54:36.663Z,98.73
2023-01-03T05:55:36.822Z,99.56
2023-01-03T05:56:36.954Z,99.35
2023-01-03T05:57:37.119Z,99.77
2023-01-03T05:58:37.293Z,99.99
2023-01-03T05:59:37.460Z,99.99
2023-01-03T06:00:37.626Z,99.98
2023-01-03T06:01:38.638Z,99.51
2023-01-03T06:02:39.208Z,99.61
2023-01-03T06:03:38.127Z,99.61
2023-01-03T06:04:40.685Z,99.51
2023-01-03T06:05:43.246Z,99.30
2023-01-03T06:06:41.598Z,99.71
2023-01-03T06:07:38.814Z,99.99
2023-01-03T06:08:39.008Z,99.92
2023-01-03T06:09:39.161Z,99.99
2023-01-03T06:10:40.140Z,99.99
2023-01-03T06:11:40.134Z,99.65
2023-01-03T06:12:39.676Z,99.99
2023-01-03T06:13:40.640Z,99.99
2023-01-03T06:14:40.166Z,99.99
2023-01-03T06:15:41.111Z,99.99
2023-01-03T06:16:41.160Z,99.99
2023-01-03T06:17:40.617Z,99.99
2023-01-03T06:18:41.637Z,99.99
2023-01-03T06:19:41.163Z,99.91
2023-01-03T06:20:41.188Z,99.99
2023-01-03T06:21:41.345Z,99.99
2023-01-03T06:22:41.523Z,99.99
2023-01-03T06:23:42.466Z,99.99
2023-01-03T06:24:42.638Z,99.99
2023-01-03T06:25:42.053Z,99.99
2023-01-03T06:26:42.648Z,99.99
2023-01-03T06:27:42.414Z,99.99
2023-01-03T06:28:43.095Z,99.99
2023-01-03T06:29:42.734Z,99.99
2023-01-03T06:30:42.928Z,99.99
2023-01-03T06:31:43.181Z,99.99
2023-01-03T06:32:44.099Z,99.99
2023-01-03T06:33:43.501Z,99.99
2023-01-03T06:34:43.700Z,99.99
2023-01-03T06:35:44.642Z,99.99
2023-01-03T06:36:44.201Z,99.99
2023-01-03T06:37:44.253Z,99.94
2023-01-03T06:38:45.149Z,99.58
2023-01-03T06:39:44.551Z,99.48
2023-01-03T06:40:45.875Z,98.44
2023-01-03T06:41:47.541Z,98.44
2023-01-03T06:42:46.619Z,98.03
2023-01-03T06:43:45.252Z,98.65
2023-01-03T06:44:46.146Z,97.83
2023-01-03T06:45:47.142Z,97.83
2023-01-03T06:46:46.689Z,98.13
2023-01-03T06:47:46.158Z,98.24
2023-01-03T06:48:46.198Z,98.65
2023-01-03T06:49:46.373Z,98.44
2023-01-03T06:50:46.527Z,98.24
2023-01-03T06:51:48.102Z,98.18
2023-01-03T06:52:46.861Z,98.34
2023-01-03T06:53:47.053Z,98.60
2023-01-03T06:54:48.179Z,98.55
2023-01-03T06:55:52.871Z,98.50
2023-01-03T06:56:50.146Z,98.34
2023-01-03T06:57:47.760Z,97.72
2023-01-03T06:58:47.956Z,97.52
2023-01-03T06:59:48.677Z,97.62
2023-01-03T07:00:48.293Z,98.13
2023-01-03T07:01:48.623Z,98.03
2023-01-03T07:02:48.877Z,98.13
2023-01-03T07:03:48.985Z,98.24
2023-01-03T07:04:49.129Z,97.62
2023-01-03T07:05:49.259Z,98.03
2023-01-03T07:06:49.474Z,98.03
2023-01-03T07:07:50.646Z,97.83
2023-01-03T07:08:49.801Z,98.34
2023-01-03T07:09:50.670Z,98.86
2023-01-03T07:10:51.978Z,99.38
2023-01-03T07:11:50.375Z,98.75
2023-01-03T07:12:51.149Z,98.96
2023-01-03T07:13:50.789Z,99.99
2023-01-03T07:14:50.972Z,99.99
2023-01-03T07:15:51.203Z,99.74
2023-01-03T07:16:52.113Z,99.91
2023-01-03T07:17:51.499Z,99.24
2023-01-03T07:18:55.419Z,99.04
2023-01-03T07:19:53.650Z,98.62
2023-01-03T07:20:52.611Z,98.41
2023-01-03T07:21:52.332Z,98.57
2023-01-03T07:22:52.392Z,97.85
2023-01-03T07:23:53.132Z,97.91
2023-01-03T07:24:52.816Z,97.50
2023-01-03T07:25:53.028Z,96.98
2023-01-03T07:26:53.213Z,97.39
2023-01-03T07:27:53.392Z,96.47
2023-01-03T07:28:53.603Z,96.36
2023-01-03T07:29:53.810Z,96.47
2023-01-03T07:30:54.686Z,96.56
2023-01-03T07:31:54.214Z,96.56
2023-01-03T07:32:54.313Z,96.67
2023-01-03T07:33:54.502Z,96.67
2023-01-03T07:34:55.179Z,96.47
2023-01-03T07:35:54.863Z,96.67
2023-01-03T07:36:55.061Z,96.42
2023-01-03T07:37:55.231Z,96.15
2023-01-03T07:38:55.413Z,96.62
2023-01-03T07:39:56.619Z,96.47
2023-01-03T07:40:55.797Z,96.88
2023-01-03T07:41:55.960Z,96.47
2023-01-03T07:42:56.133Z,96.47
2023-01-03T07:43:56.332Z,96.31
2023-01-03T07:44:57.169Z,96.31
2023-01-03T07:45:56.700Z,96.73
2023-01-03T07:46:57.700Z,96.73
2023-01-03T07:47:56.997Z,96.52
2023-01-03T07:48:58.111Z,96.52
2023-01-03T07:49:57.389Z,96.62
2023-01-03T07:50:57.538Z,96.11
2023-01-03T07:51:58.619Z,96.27
2023-01-03T07:52:57.884Z,96.06
2023-01-03T07:53:58.616Z,95.96
2023-01-03T07:54:58.279Z,95.96
2023-01-03T07:55:58.430Z,95.96
2023-01-03T07:56:58.592Z,95.86
2023-01-03T07:57:59.618Z,96.17
2023-01-03T07:58:58.905Z,95.86
2023-01-03T07:59:59.066Z,95.45
2023-01-03T08:01:00.164Z,95.96
2023-01-03T08:01:59.548Z,95.55
2023-01-03T08:02:59.676Z,95.76
2023-01-03T08:03:59.749Z,96.06
2023-01-03T08:04:59.948Z,95.45
2023-01-03T08:06:01.617Z,95.40
2023-01-03T08:07:00.393Z,95.09
2023-01-03T08:08:00.549Z,95.45
2023-01-03T08:09:06.023Z,95.03
2023-01-03T08:10:02.661Z,94.89
2023-01-03T08:11:01.619Z,95.50
2023-01-03T08:12:01.290Z,94.89
2023-01-03T08:13:02.167Z,95.20
2023-01-03T08:14:01.693Z,95.40
2023-01-03T08:15:02.215Z,94.82
2023-01-03T08:16:03.658Z,95.20
2023-01-03T08:17:02.100Z,94.68
2023-01-03T08:18:03.627Z,94.57
2023-01-03T08:19:03.126Z,94.89
2023-01-03T08:20:03.620Z,94.78
2023-01-03T08:21:03.657Z,94.78
2023-01-03T08:22:03.028Z,94.57
2023-01-03T08:23:03.175Z,94.78
2023-01-03T08:24:03.335Z,94.68
2023-01-03T08:25:03.474Z,94.89
2023-01-03T08:26:03.679Z,94.57
2023-01-03T08:27:03.862Z,94.06
2023-01-03T08:28:04.026Z,94.78
2023-01-03T08:29:04.676Z,94.68
2023-01-03T08:30:04.311Z,94.68
2023-01-03T08:31:05.192Z,94.06
2023-01-03T08:32:07.136Z,94.68
2023-01-03T08:33:04.901Z,94.37
2023-01-03T08:34:11.852Z,94.47
2023-01-03T08:35:07.303Z,94.17
2023-01-03T08:36:05.461Z,94.37
2023-01-03T08:37:05.659Z,94.68
2023-01-03T08:38:06.627Z,94.27
2023-01-03T08:39:06.622Z,94.27
2023-01-03T08:40:07.622Z,94.47
2023-01-03T08:41:06.400Z,94.74
2023-01-03T08:42:07.168Z,94.37
2023-01-03T08:43:06.822Z,94.06
2023-01-03T08:44:07.024Z,94.47
2023-01-03T08:45:07.205Z,94.68
2023-01-03T08:46:07.536Z,94.27
2023-01-03T08:47:08.526Z,94.23
2023-01-03T08:48:08.739Z,93.85
2023-01-03T08:49:07.937Z,94.02
2023-01-03T08:50:08.631Z,94.02
2023-01-03T08:51:08.315Z,94.02
2023-01-03T08:52:09.000Z,93.85
2023-01-03T08:53:09.625Z,93.75
2023-01-03T08:54:09.679Z,94.06
2023-01-03T08:55:09.628Z,94.27
2023-01-03T08:56:10.125Z,94.17
2023-01-03T08:57:11.141Z,94.47
2023-01-03T08:58:09.564Z,94.89
2023-01-03T08:59:10.667Z,93.91
2023-01-03T09:00:10.031Z,93.25
2023-01-03T09:01:10.234Z,93.09
2023-01-03T09:02:11.384Z,93.30
2023-01-03T09:03:10.728Z,93.19
2023-01-03T09:04:11.702Z,93.19
2023-01-03T09:05:10.921Z,93.60
2023-01-03T09:06:11.120Z,93.19
2023-01-03T09:07:11.284Z,93.60
2023-01-03T09:08:13.029Z,93.60
2023-01-03T09:09:11.642Z,94.23
2023-01-03T09:10:11.803Z,93.40
2023-01-03T09:11:11.987Z,92.37
2023-01-03T09:12:12.118Z,92.38
2023-01-03T09:13:12.272Z,91.52
2023-01-03T09:14:12.425Z,90.90
2023-01-03T09:15:12.636Z,90.28
2023-01-03T09:16:12.893Z,90.69
2023-01-03T09:17:13.638Z,89.73
2023-01-03T09:18:14.132Z,89.58
2023-01-03T09:19:13.377Z,88.76
2023-01-03T09:20:13.544Z,89.01
2023-01-03T09:21:13.716Z,89.11
2023-01-03T09:22:13.914Z,90.18
2023-01-03T09:23:14.103Z,90.90
2023-01-03T09:24:15.183Z,90.84
2023-01-03T09:25:15.179Z,91.25
2023-01-03T09:26:16.635Z,90.94
2023-01-03T09:27:14.777Z,91.05
2023-01-03T09:28:16.635Z,91.06
2023-01-03T09:29:15.123Z,89.79
2023-01-03T09:30:17.137Z,88.31
2023-01-03T09:31:15.598Z,87.79
2023-01-03T09:32:15.838Z,87.82
2023-01-03T09:33:15.839Z,86.89
2023-01-03T09:34:16.638Z,86.79
2023-01-03T09:35:16.160Z,87.13
2023-01-03T09:36:17.007Z,87.40
2023-01-03T09:37:16.458Z,86.54
2023-01-03T09:38:16.655Z,85.44
2023-01-03T09:39:17.692Z,84.20
2023-01-03T09:40:17.013Z,84.61
2023-01-03T09:41:17.198Z,84.76
2023-01-03T09:42:18.186Z,84.76
2023-01-03T09:43:24.652Z,83.90
2023-01-03T09:44:19.803Z,84.00
2023-01-03T09:45:17.923Z,83.90
2023-01-03T09:46:19.197Z,84.31
2023-01-03T09:47:18.308Z,83.69
2023-01-03T09:48:18.388Z,83.90
2023-01-03T09:49:19.177Z,83.45
2023-01-03T09:50:31.926Z,83.65
2023-01-03T09:51:27.514Z,83.90
2023-01-03T09:52:21.128Z,83.90
2023-01-03T09:53:19.261Z,84.00
2023-01-03T09:54:20.141Z,84.72
2023-01-03T09:55:21.141Z,84.45
2023-01-03T09:56:19.916Z,84.25
2023-01-03T09:57:26.338Z,84.45
2023-01-03T09:58:24.011Z,84.31
2023-01-03T09:59:21.190Z,84.61
2023-01-03T10:00:21.182Z,84.76
2023-01-03T10:01:23.281Z,85.62
2023-01-03T10:02:21.109Z,86.42
2023-01-03T10:03:21.093Z,87.24
2023-01-03T10:04:21.202Z,86.99
2023-01-03T10:05:22.145Z,86.65
2023-01-03T10:06:21.692Z,86.54
2023-01-03T10:07:21.738Z,86.68
2023-01-03T10:08:21.879Z,86.58
2023-01-03T10:09:23.012Z,87.18
2023-01-03T10:10:23.642Z,88.10
2023-01-03T10:11:22.366Z,88.45
2023-01-03T10:12:23.165Z,88.92
2023-01-03T10:13:23.616Z,87.69
2023-01-03T10:14:24.652Z,88.17
2023-01-03T10:15:23.146Z,87.40
2023-01-03T10:16:23.375Z,87.92
2023-01-03T10:17:23.556Z,87.34
2023-01-03T10:18:23.750Z,88.06
2023-01-03T10:19:24.686Z,88.92
2023-01-03T10:20:28.043Z,88.62
2023-01-03T10:21:27.148Z,89.28
2023-01-03T10:22:26.649Z,89.38
2023-01-03T10:23:24.671Z,89.28
2023-01-03T10:24:25.699Z,89.28
2023-01-03T10:25:24.967Z,89.89
2023-01-03T10:26:30.788Z,89.58
2023-01-03T10:27:27.321Z,89.58
2023-01-03T10:28:26.604Z,89.28
2023-01-03T10:29:26.655Z,89.64
2023-01-03T10:30:26.692Z,89.89
2023-01-03T10:31:26.173Z,89.75
2023-01-03T10:32:27.152Z,88.86
2023-01-03T10:33:26.448Z,89.17
2023-01-03T10:34:27.190Z,89.23
2023-01-03T10:35:27.700Z,88.78
2023-01-03T10:36:26.995Z,88.23
2023-01-03T10:37:27.251Z,87.98
2023-01-03T10:38:28.154Z,86.91
2023-01-03T10:39:30.026Z,86.50
2023-01-03T10:40:27.831Z,85.52
2023-01-03T10:41:28.063Z,86.48
2023-01-03T10:42:28.279Z,87.20
2023-01-03T10:43:29.707Z,87.96
2023-01-03T10:44:28.668Z,88.37
2023-01-03T10:45:28.926Z,88.92
2023-01-03T10:46:30.283Z,88.68
2023-01-03T10:47:30.171Z,88.72
2023-01-03T10:48:36.131Z,89.13
2023-01-03T10:49:31.260Z,89.23
2023-01-03T10:50:31.196Z,89.03
2023-01-03T10:51:29.840Z,89.54
2023-01-03T10:52:30.009Z,89.85
2023-01-03T10:53:30.694Z,90.06
2023-01-03T10:54:31.336Z,89.64
2023-01-03T10:55:30.496Z,89.64
2023-01-03T10:56:30.709Z,89.58
2023-01-03T10:57:31.699Z,90.09
2023-01-03T10:58:36.315Z,90.09
2023-01-03T10:59:33.311Z,90.20
2023-01-03T11:00:31.577Z,90.16
2023-01-03T11:01:32.772Z,90.98
2023-01-03T11:02:32.032Z,90.67
2023-01-03T11:03:32.268Z,90.06
2023-01-03T11:04:32.233Z,89.91
2023-01-03T11:05:32.436Z,89.25
2023-01-03T11:06:32.592Z,89.15
2023-01-03T11:07:34.162Z,88.43
2023-01-03T11:08:32.884Z,88.47
2023-01-03T11:09:33.008Z,89.09
2023-01-03T11:10:33.183Z,89.09
2023-01-03T11:11:33.354Z,89.50
2023-01-03T11:12:33.504Z,88.89
2023-01-03T11:13:33.634Z,88.82
2023-01-03T11:14:33.784Z,89.64
2023-01-03T11:15:38.732Z,89.54
2023-01-03T11:16:37.064Z,89.54
2023-01-03T11:17:34.317Z,90.06
2023-01-03T11:18:34.473Z,89.54
2023-01-03T11:19:34.713Z,89.64
2023-01-03T11:20:34.764Z,89.54
2023-01-03T11:21:34.910Z,89.54
2023-01-03T11:22:37.609Z,90.01
2023-01-03T11:23:36.227Z,89.91
2023-01-03T11:24:35.356Z,89.34
2023-01-03T11:25:35.544Z,88.98
2023-01-03T11:26:36.732Z,89.54
2023-01-03T11:27:36.219Z,89.09
2023-01-03T11:28:36.117Z,90.22
2023-01-03T11:29:36.268Z,90.32
2023-01-03T11:30:36.440Z,89.97
2023-01-03T11:31:37.674Z,89.46
2023-01-03T11:32:37.673Z,89.15
2023-01-03T11:33:37.672Z,89.15
2023-01-03T11:35:11.719Z,89.36
2023-01-03T11:35:40.233Z,89.15
2023-01-03T11:36:37.561Z,89.40
2023-01-03T11:37:38.226Z,89.09
2023-01-03T11:38:38.711Z,89.40
2023-01-03T11:39:38.672Z,89.19
2023-01-03T11:40:38.216Z,89.64
2023-01-03T11:41:39.673Z,89.23
2023-01-03T11:42:38.577Z,90.16
2023-01-03T11:43:38.732Z,90.26
2023-01-03T11:44:38.850Z,90.22
2023-01-03T11:45:44.750Z,90.26
2023-01-03T11:46:41.189Z,90.26
2023-01-03T11:47:40.174Z,90.63
2023-01-03T11:48:40.219Z,90.36
2023-01-03T11:49:39.739Z,90.12
2023-01-03T11:50:40.536Z,90.22
2023-01-03T11:51:41.678Z,90.42
2023-01-03T11:52:41.184Z,88.98
2023-01-03T11:53:40.327Z,89.19
2023-01-03T11:54:41.211Z,89.19
2023-01-03T11:55:40.793Z,88.98
2023-01-03T11:56:41.001Z,89.19
2023-01-03T11:57:41.222Z,90.01
2023-01-03T11:58:42.215Z,88.74
2023-01-03T11:59:41.621Z,88.74
2023-01-03T12:00:41.851Z,88.53
2023-01-03T12:01:42.062Z,88.84
2023-01-03T12:02:43.230Z,88.90
2023-01-03T12:03:43.344Z,88.39
2023-01-03T12:04:42.534Z,88.18
2023-01-03T12:05:43.690Z,88.18
2023-01-03T12:06:43.226Z,87.10
2023-01-03T12:07:48.136Z,88.12
2023-01-03T12:08:45.163Z,88.02
2023-01-03T12:09:43.292Z,88.57
2023-01-03T12:10:45.684Z,88.57
2023-01-03T12:11:43.727Z,88.84
2023-01-03T12:12:43.937Z,89.15
2023-01-03T12:13:44.707Z,89.09
2023-01-03T12:14:44.250Z,88.64
2023-01-03T12:15:46.209Z,89.21
2023-01-03T12:16:44.536Z,89.01
2023-01-03T12:17:44.751Z,88.74
2023-01-03T12:18:45.231Z,88.02
2023-01-03T12:19:45.721Z,88.74
2023-01-03T12:20:45.326Z,88.53
2023-01-03T12:21:45.491Z,88.64
2023-01-03T12:22:45.701Z,88.39
2023-01-03T12:23:45.856Z,87.98
2023-01-03T12:24:47.029Z,88.90
2023-01-03T12:25:46.322Z,87.98
2023-01-03T12:26:47.420Z,88.02
2023-01-03T12:27:46.583Z,88.29
2023-01-03T12:28:47.683Z,87.88
2023-01-03T12:29:46.967Z,88.18
2023-01-03T12:30:47.180Z,87.88
2023-01-03T12:31:48.269Z,87.26
2023-01-03T12:32:48.696Z,87.37
2023-01-03T12:33:47.755Z,87.37
2023-01-03T12:34:47.925Z,87.98
2023-01-03T12:35:48.129Z,88.29
2023-01-03T12:36:48.296Z,88.08
2023-01-03T12:37:49.195Z,87.88
2023-01-03T12:38:49.226Z,87.37
2023-01-03T12:39:48.879Z,87.67
2023-01-03T12:40:49.070Z,88.14
2023-01-03T12:41:49.208Z,88.14
2023-01-03T12:42:50.401Z,88.04
2023-01-03T12:43:49.564Z,87.94
2023-01-03T12:44:49.725Z,87.43
2023-01-03T12:45:49.939Z,87.53
2023-01-03T12:46:50.333Z,88.14
2023-01-03T12:47:50.218Z,87.90
2023-01-03T12:48:50.750Z,87.28
2023-01-03T12:49:51.186Z,86.77
2023-01-03T12:50:50.709Z,86.98
2023-01-03T12:51:51.242Z,86.98
2023-01-03T12:52:51.043Z,86.77
2023-01-03T12:53:51.247Z,86.87
2023-01-03T12:54:52.692Z,86.46